Time;durP1;ratioP1;P1;durP2;ratioP2;P2;SDS_P1;SDS_P2;PMS_P1;PMS_P2;Temp;Humidity;BMP_temperature;BMP_pressure;BME280_temperature;BME280_humidity;BME280_pressure;Samples;Min_cycle;Max_cycle;Signal;HPM_P1;HPM_P2
2022/08/04 00:01:28;;;;;;;4.60;2.58;;;;;;;;;;10055392;28;20660;-68
2022/08/04 00:06:27;;;;;;;4.15;2.63;;;;;;;;;;10057169;28;20080;-68
2022/08/04 00:11:23;;;;;;;2.42;2.22;;;;;;;;;;10065325;28;20128;-68
2022/08/04 00:16:19;;;;;;;5.15;2.17;;;;;;;;;;10056915;28;20513;-68
2022/08/04 00:21:14;;;;;;;4.97;2.58;;;;;;;;;;10057584;28;20397;-68
2022/08/04 00:26:09;;;;;;;3.90;2.72;;;;;;;;;;10052516;28;20046;-68
2022/08/04 00:31:04;;;;;;;2.28;2.13;;;;;;;;;;10051904;28;20096;-67
2022/08/04 00:36:01;;;;;;;3.47;2.40;;;;;;;;;;10059382;28;20104;-68
2022/08/04 00:40:59;;;;;;;6.53;2.60;;;;;;;;;;10054474;28;20100;-68
2022/08/04 00:45:58;;;;;;;4.90;2.78;;;;;;;;;;10048985;28;20073;-68
2022/08/04 00:51:09;;;;;;;7.93;3.42;;;;;;;;;;10070970;28;20049;-68
2022/08/04 00:56:23;;;;;;;5.38;3.47;;;;;;;;;;10053623;28;20057;-68
2022/08/04 01:01:36;;;;;;;4.30;3.90;;;;;;;;;;10072181;28;20053;-68
2022/08/04 01:06:42;;;;;;;6.45;3.80;;;;;;;;;;10054151;28;20105;-68
2022/08/04 01:12:19;;;;;;;6.22;4.47;;;;;;;;;;10062856;28;20095;-68
2022/08/04 01:17:28;;;;;;;6.85;4.45;;;;;;;;;;10070267;28;20073;-68
2022/08/04 01:22:33;;;;;;;4.13;3.35;;;;;;;;;;10059740;28;20060;-68
2022/08/04 01:27:29;;;;;;;5.75;3.10;;;;;;;;;;10069264;28;20053;-68
2022/08/04 01:33:05;;;;;;;5.28;2.95;;;;;;;;;;10069774;28;20057;-68
2022/08/04 01:38:14;;;;;;;8.40;3.67;;;;;;;;;;10062255;28;20052;-68
2022/08/04 01:43:14;;;;;;;3.97;3.03;;;;;;;;;;10054466;28;20117;-68
2022/08/04 01:48:07;;;;;;;2.80;2.60;;;;;;;;;;10063361;28;20143;-68
2022/08/04 01:53:01;;;;;;;9.30;3.67;;;;;;;;;;10068954;28;20387;-68
2022/08/04 01:57:58;;;;;;;3.40;2.97;;;;;;;;;;10070086;28;20053;-68
2022/08/04 02:02:54;;;;;;;3.80;3.50;;;;;;;;;;10068909;28;20124;-68
2022/08/04 02:08:05;;;;;;;5.82;3.13;;;;;;;;;;10063757;28;20095;-68
2022/08/04 02:12:58;;;;;;;3.50;3.20;;;;;;;;;;10061647;28;20049;-68
2022/08/04 02:18:15;;;;;;;9.15;2.47;;;;;;;;;;10055612;28;20056;-68
2022/08/04 02:23:36;;;;;;;4.38;2.50;;;;;;;;;;10063660;28;20046;-68
2022/08/04 02:28:38;;;;;;;4.43;2.25;;;;;;;;;;10057485;28;20049;-68
2022/08/04 02:33:41;;;;;;;2.42;2.20;;;;;;;;;;10061078;28;20430;-68
2022/08/04 02:38:59;;;;;;;2.58;2.38;;;;;;;;;;10067083;28;20455;-68
2022/08/04 02:43:56;;;;;;;7.60;2.50;;;;;;;;;;10053724;28;20049;-68
2022/08/04 02:48:51;;;;;;;5.80;2.70;;;;;;;;;;10068818;28;20069;-68
2022/08/04 02:53:46;;;;;;;2.70;2.50;;;;;;;;;;10056409;28;20104;-68
2022/08/04 02:58:41;;;;;;;8.45;3.22;;;;;;;;;;10057050;28;20084;-68
2022/08/04 03:03:37;;;;;;;6.32;3.40;;;;;;;;;;10058544;28;20045;-68
2022/08/04 03:08:36;;;;;;;5.10;2.58;;;;;;;;;;10055331;28;20136;-68
2022/08/04 03:13:47;;;;;;;7.10;2.33;;;;;;;;;;10055952;28;20056;-68
2022/08/04 03:18:52;;;;;;;7.25;3.00;;;;;;;;;;10060356;28;20062;-68
2022/08/04 03:24:23;;;;;;;5.05;3.33;;;;;;;;;;10060437;28;20510;-68
2022/08/04 03:29:58;;;;;;;4.32;3.92;;;;;;;;;;10057763;28;20053;-68
2022/08/04 03:35:10;;;;;;;5.95;3.47;;;;;;;;;;10065673;28;20045;-68
2022/08/04 03:40:25;;;;;;;5.93;3.67;;;;;;;;;;10055046;28;20049;-68
2022/08/04 03:45:49;;;;;;;3.97;3.38;;;;;;;;;;10052111;28;20046;-68
2022/08/04 03:53:07;;;;;;;7.32;3.60;;;;;;;;;;10049200;28;20053;-68
2022/08/04 03:57:01;;;;;;;4.80;3.22;;;;;;;;;;10052390;28;20509;-68
2022/08/04 04:01:59;;;;;;;;;;;;;;;;;;10055281;28;20037;-69
2022/08/04 04:07:28;;;;;;;3.85;2.90;;;;;;;;;;10053903;28;19967;-68
2022/08/04 04:12:33;;;;;;;7.13;3.88;;;;;;;;;;10052670;28;20054;-68
2022/08/04 04:17:45;;;;;;;4.68;3.80;;;;;;;;;;10056390;28;20072;-68
2022/08/04 04:22:47;;;;;;;4.53;4.07;;;;;;;;;;10070737;28;20504;-68
2022/08/04 04:28:00;;;;;;;9.40;3.58;;;;;;;;;;10058735;28;20053;-68
2022/08/04 04:33:46;;;;;;;4.57;3.55;;;;;;;;;;10062532;28;20041;-68
2022/08/04 04:39:17;;;;;;;9.70;3.65;;;;;;;;;;10073052;28;20418;-68
2022/08/04 04:44:29;;;;;;;5.10;2.83;;;;;;;;;;10049097;28;20073;-68
2022/08/04 04:49:30;;;;;;;3.80;2.80;;;;;;;;;;10066354;28;20532;-68
2022/08/04 04:54:38;;;;;;;9.88;3.13;;;;;;;;;;10053526;28;20064;-68
2022/08/04 04:59:34;;;;;;;7.30;3.38;;;;;;;;;;10064547;28;20077;-68
2022/08/04 05:05:05;;;;;;;4.47;2.90;;;;;;;;;;10059836;28;20429;-68
2022/08/04 05:10:14;;;;;;;9.82;3.13;;;;;;;;;;10059040;28;20137;-68
2022/08/04 05:15:09;;;;;;;6.43;3.25;;;;;;;;;;10068569;28;20053;-68
2022/08/04 05:20:15;;;;;;;9.52;3.80;;;;;;;;;;10067179;28;20053;-68
2022/08/04 05:25:20;;;;;;;12.88;4.05;;;;;;;;;;10067916;28;20383;-68
2022/08/04 05:30:15;;;;;;;20.13;4.45;;;;;;;;;;10068357;28;20092;-69
2022/08/04 05:35:15;;;;;;;21.70;4.43;;;;;;;;;;10067140;28;20053;-69
2022/08/04 05:40:29;;;;;;;15.50;4.22;;;;;;;;;;10069059;28;20501;-68
2022/08/04 05:45:23;;;;;;;15.23;4.68;;;;;;;;;;10057763;28;20045;-68
2022/08/04 05:50:19;;;;;;;16.40;4.15;;;;;;;;;;10061146;28;20124;-68
2022/08/04 05:55:16;;;;;;;9.18;3.65;;;;;;;;;;10060863;28;20498;-68
2022/08/04 06:00:29;;;;;;;6.25;3.60;;;;;;;;;;10059851;28;20100;-68
2022/08/04 06:05:33;;;;;;;10.13;3.38;;;;;;;;;;10063957;28;20478;-68
2022/08/04 06:10:28;;;;;;;10.50;3.90;;;;;;;;;;10067640;28;20579;-68
2022/08/04 06:15:24;;;;;;;11.48;3.42;;;;;;;;;;10067993;28;20045;-68
2022/08/04 06:20:28;;;;;;;11.43;2.95;;;;;;;;;;10061353;28;20057;-68
2022/08/04 06:25:35;;;;;;;11.77;3.75;;;;;;;;;;10077936;28;20084;-68
2022/08/04 06:30:31;;;;;;;13.32;3.03;;;;;;;;;;10066779;28;20045;-68
2022/08/04 06:35:25;;;;;;;12.95;4.13;;;;;;;;;;10062770;28;20057;-69
2022/08/04 06:40:21;;;;;;;10.25;2.95;;;;;;;;;;10056377;28;20069;-68
2022/08/04 06:45:25;;;;;;;7.50;2.58;;;;;;;;;;10061491;28;20513;-69
2022/08/04 06:50:19;;;;;;;3.03;2.60;;;;;;;;;;10057810;28;20060;-69
2022/08/04 06:55:32;;;;;;;14.98;3.72;;;;;;;;;;10058803;28;20054;-68
2022/08/04 07:00:26;;;;;;;13.57;3.40;;;;;;;;;;10053986;28;20052;-68
2022/08/04 07:05:20;;;;;;;17.63;3.63;;;;;;;;;;10055903;28;20045;-68
2022/08/04 07:10:14;;;;;;;7.40;3.17;;;;;;;;;;10060611;28;20049;-69
2022/08/04 07:15:17;;;;;;;9.98;3.17;;;;;;;;;;10061443;28;20056;-69
2022/08/04 07:20:11;;;;;;;6.05;2.08;;;;;;;;;;10067134;28;20057;-69
2022/08/04 07:25:11;;;;;;;7.68;3.85;;;;;;;;;;10067339;28;20100;-69
2022/08/04 07:30:07;;;;;;;11.57;2.75;;;;;;;;;;10055410;28;20068;-69
2022/08/04 07:35:01;;;;;;;11.55;3.03;;;;;;;;;;10055755;28;20053;-69
2022/08/04 07:39:55;;;;;;;7.18;2.53;;;;;;;;;;10063403;28;20069;-69
2022/08/04 07:44:48;;;;;;;8.85;3.17;;;;;;;;;;10057714;28;20049;-69
2022/08/04 07:49:44;;;;;;;14.35;3.83;;;;;;;;;;10061113;28;20489;-69
2022/08/04 07:54:50;;;;;;;4.35;2.55;;;;;;;;;;10065873;28;20403;-69
2022/08/04 07:59:44;;;;;;;8.65;3.33;;;;;;;;;;10061029;28;20050;-69
2022/08/04 08:04:43;;;;;;;18.45;3.08;;;;;;;;;;10062964;28;20057;-69
2022/08/04 08:09:37;;;;;;;9.13;2.90;;;;;;;;;;10063447;28;20422;-69
2022/08/04 08:14:30;;;;;;;8.88;2.75;;;;;;;;;;10062588;28;20406;-69
2022/08/04 08:19:24;;;;;;;7.38;2.08;;;;;;;;;;10052262;28;20041;-70
2022/08/04 08:24:19;;;;;;;6.70;2.65;;;;;;;;;;10057042;28;20060;-70
2022/08/04 08:29:12;;;;;;;10.88;2.33;;;;;;;;;;10055174;28;20057;-69
2022/08/04 08:34:08;;;;;;;10.88;3.38;;;;;;;;;;10049247;28;20129;-69
2022/08/04 08:39:21;;;;;;;9.45;2.65;;;;;;;;;;10058958;28;20073;-69
2022/08/04 08:44:50;;;;;;;10.48;2.70;;;;;;;;;;10051385;28;20038;-70
2022/08/04 08:50:03;;;;;;;12.48;3.72;;;;;;;;;;10061656;28;20042;-68
2022/08/04 08:55:18;;;;;;;5.07;1.75;;;;;;;;;;10051459;28;20526;-67
2022/08/04 09:00:41;;;;;;;5.32;2.50;;;;;;;;;;10048272;28;20569;-67
2022/08/04 09:05:53;;;;;;;7.13;1.67;;;;;;;;;;10061437;28;20061;-67
2022/08/04 09:10:47;;;;;;;5.45;2.42;;;;;;;;;;10068339;28;20045;-67
2022/08/04 09:16:10;;;;;;;4.97;1.35;;;;;;;;;;10063106;28;20052;-67
2022/08/04 09:21:17;;;;;;;10.10;1.50;;;;;;;;;;10063521;28;20049;-67
2022/08/04 09:26:26;;;;;;;11.18;2.25;;;;;;;;;;10059925;28;20072;-67
2022/08/04 09:31:23;;;;;;;2.95;1.10;;;;;;;;;;10061098;28;20095;-67
2022/08/04 09:36:52;;;;;;;4.20;1.83;;;;;;;;;;10071811;28;20129;-69
2022/08/04 09:42:29;;;;;;;9.02;1.33;;;;;;;;;;10060231;28;20046;-68
2022/08/04 09:47:25;;;;;;;6.72;1.30;;;;;;;;;;10064014;28;20076;-67
2022/08/04 09:53:09;;;;;;;5.50;0.93;;;;;;;;;;10067128;28;20099;-68
2022/08/04 09:58:21;;;;;;;5.18;1.13;;;;;;;;;;10062771;28;20037;-68
2022/08/04 10:03:16;;;;;;;6.18;1.13;;;;;;;;;;10052961;28;20137;-68
2022/08/04 10:08:15;;;;;;;5.57;1.30;;;;;;;;;;10068227;28;20137;-68
2022/08/04 10:13:25;;;;;;;6.38;0.90;;;;;;;;;;10067200;28;20108;-68
2022/08/04 10:18:44;;;;;;;4.25;1.10;;;;;;;;;;10051622;28;20065;-68
2022/08/04 10:24:14;;;;;;;3.10;0.90;;;;;;;;;;10065710;28;20056;-67
2022/08/04 10:29:17;;;;;;;3.75;1.85;;;;;;;;;;10068897;28;20041;-68
2022/08/04 10:34:19;;;;;;;5.03;0.75;;;;;;;;;;10069021;28;20050;-68
2022/08/04 10:39:36;;;;;;;1.65;0.65;;;;;;;;;;10067268;28;20409;-68
2022/08/04 10:45:14;;;;;;;4.30;1.30;;;;;;;;;;10067272;28;20107;-68
2022/08/04 10:50:09;;;;;;;1.15;0.70;;;;;;;;;;10063952;28;20104;-68
2022/08/04 10:55:21;;;;;;;4.20;1.00;;;;;;;;;;10067338;28;20057;-68
2022/08/04 11:00:35;;;;;;;1.60;0.68;;;;;;;;;;10067513;28;20087;-68
2022/08/04 11:05:49;;;;;;;4.13;1.00;;;;;;;;;;10067199;28;20049;-68
2022/08/04 11:11:10;;;;;;;5.05;0.80;;;;;;;;;;10067481;28;20053;-68
2022/08/04 11:16:08;;;;;;;4.53;0.70;;;;;;;;;;10067182;28;20111;-68
2022/08/04 11:21:28;;;;;;;4.95;0.98;;;;;;;;;;10082114;28;20107;-68
2022/08/04 11:26:27;;;;;;;2.05;0.80;;;;;;;;;;10046195;28;20053;-70
2022/08/04 11:31:30;;;;;;;2.05;1.23;;;;;;;;;;10063448;28;20061;-73
2022/08/04 11:36:27;;;;;;;2.72;0.77;;;;;;;;;;10061007;28;20041;-69
2022/08/04 11:41:46;;;;;;;3.70;1.10;;;;;;;;;;10062494;28;20124;-68
2022/08/04 11:46:50;;;;;;;4.13;1.00;;;;;;;;;;10061911;28;20497;-67
2022/08/04 11:51:45;;;;;;;1.33;0.60;;;;;;;;;;10057383;28;20045;-67
2022/08/04 11:56:38;;;;;;;1.48;0.60;;;;;;;;;;10061544;28;20065;-67
2022/08/04 12:01:45;;;;;;;3.38;1.00;;;;;;;;;;10060550;28;20058;-67
2022/08/04 12:07:16;;;;;;;10.18;1.05;;;;;;;;;;10062118;28;20049;-67
2022/08/04 12:12:42;;;;;;;3.00;1.00;;;;;;;;;;10012517;28;20108;-67
2022/08/04 12:18:04;;;;;;;2.75;0.90;;;;;;;;;;10048196;28;20129;-68
2022/08/04 12:23:00;;;;;;;1.83;0.70;;;;;;;;;;10047424;28;20061;-68
2022/08/04 12:28:15;;;;;;;2.92;0.90;;;;;;;;;;10055650;28;20058;-68
2022/08/04 12:33:13;;;;;;;0.82;0.70;;;;;;;;;;10054627;28;20041;-68
2022/08/04 12:38:18;;;;;;;0.75;0.68;;;;;;;;;;10051856;28;20494;-70
2022/08/04 12:43:19;;;;;;;2.92;0.68;;;;;;;;;;10069465;28;20075;-66
2022/08/04 12:48:13;;;;;;;5.00;1.00;;;;;;;;;;10068235;28;20072;-66
2022/08/04 12:53:14;;;;;;;3.90;1.15;;;;;;;;;;10069622;28;20513;-67
2022/08/04 12:58:29;;;;;;;3.50;0.93;;;;;;;;;;10060678;28;20104;-69
2022/08/04 13:03:57;;;;;;;7.28;0.93;;;;;;;;;;10065007;28;20509;-67
2022/08/04 13:08:52;;;;;;;1.83;0.80;;;;;;;;;;10067345;28;20069;-69
2022/08/04 13:13:47;;;;;;;3.15;0.90;;;;;;;;;;10066520;28;20057;-69
2022/08/04 13:19:02;;;;;;;4.95;0.80;;;;;;;;;;10070332;28;20452;-69
2022/08/04 13:24:17;;;;;;;3.40;0.52;;;;;;;;;;10061283;28;20053;-66
2022/08/04 13:29:51;;;;;;;9.60;0.80;;;;;;;;;;10065729;28;20131;-68
2022/08/04 13:34:56;;;;;;;1.90;0.50;;;;;;;;;;10063046;28;20053;-70
2022/08/04 13:39:51;;;;;;;6.80;0.95;;;;;;;;;;10081342;28;20052;-69
2022/08/04 13:44:52;;;;;;;2.10;0.85;;;;;;;;;;10066598;28;20405;-67
2022/08/04 13:50:26;;;;;;;2.33;0.93;;;;;;;;;;10064508;28;20046;-71
2022/08/04 13:55:35;;;;;;;3.85;1.13;;;;;;;;;;10063925;28;20144;-71
2022/08/04 14:00:48;;;;;;;3.95;1.20;;;;;;;;;;10062472;28;20061;-71
2022/08/04 14:05:45;;;;;;;1.60;0.80;;;;;;;;;;10066958;28;20107;-71
2022/08/04 14:10:56;;;;;;;5.40;1.83;;;;;;;;;;10064847;28;20042;-67
2022/08/04 14:15:50;;;;;;;1.27;0.98;;;;;;;;;;10058600;28;20054;-69
2022/08/04 14:20:57;;;;;;;1.65;0.77;;;;;;;;;;10060063;28;20054;-69
2022/08/04 14:25:51;;;;;;;1.58;1.00;;;;;;;;;;10065292;28;20045;-70
2022/08/04 14:30:46;;;;;;;1.38;0.90;;;;;;;;;;10063439;28;20434;-68
2022/08/04 14:35:41;;;;;;;3.97;0.95;;;;;;;;;;10066711;28;20049;-67
2022/08/04 14:40:44;;;;;;;3.22;1.17;;;;;;;;;;10064664;28;20099;-67
2022/08/04 14:45:45;;;;;;;3.35;0.90;;;;;;;;;;10060851;28;20052;-69
2022/08/04 14:50:49;;;;;;;1.85;1.00;;;;;;;;;;10065061;28;20041;-69
2022/08/04 14:55:46;;;;;;;1.70;1.10;;;;;;;;;;10060221;28;20061;-69
2022/08/04 15:00:40;;;;;;;3.38;0.88;;;;;;;;;;10074862;28;20049;-70
2022/08/04 15:05:36;;;;;;;3.67;0.90;;;;;;;;;;10058706;28;20049;-68
2022/08/04 15:10:50;;;;;;;4.30;1.20;;;;;;;;;;10060599;28;20414;-72
2022/08/04 15:15:45;;;;;;;1.00;0.95;;;;;;;;;;10063665;28;20060;-66
2022/08/04 15:20:58;;;;;;;4.70;0.80;;;;;;;;;;10061787;28;20452;-71
2022/08/04 15:25:56;;;;;;;1.65;1.08;;;;;;;;;;10063552;28;20137;-68
2022/08/04 15:30:50;;;;;;;1.20;1.10;;;;;;;;;;10061990;28;20049;-68
2022/08/04 15:35:46;;;;;;;8.45;1.15;;;;;;;;;;10061895;28;20050;-69
2022/08/04 15:40:59;;;;;;;3.08;0.80;;;;;;;;;;10056695;28;20095;-67
2022/08/04 15:45:58;;;;;;;1.90;1.10;;;;;;;;;;10059740;28;20080;-66
2022/08/04 15:51:12;;;;;;;4.63;1.25;;;;;;;;;;10074991;28;20049;-69
2022/08/04 15:56:29;;;;;;;5.00;1.13;;;;;;;;;;10060961;28;20057;-74
2022/08/04 16:01:23;;;;;;;3.90;1.20;;;;;;;;;;10063969;28;20099;-70
2022/08/04 16:06:19;;;;;;;1.88;1.40;;;;;;;;;;10060734;28;20493;-69
2022/08/04 16:11:22;;;;;;;2.73;1.00;;;;;;;;;;10059760;28;20057;-70
2022/08/04 16:16:35;;;;;;;5.07;1.33;;;;;;;;;;10063856;28;20300;-68
2022/08/04 16:21:29;;;;;;;1.40;1.27;;;;;;;;;;10061672;28;20494;-67
2022/08/04 16:26:35;;;;;;;2.20;1.20;;;;;;;;;;10050064;28;20049;-72
2022/08/04 16:31:33;;;;;;;2.45;1.15;;;;;;;;;;10060872;28;20518;-71
2022/08/04 16:36:56;;;;;;;2.45;1.10;;;;;;;;;;10056294;28;20065;-73
2022/08/04 16:41:50;;;;;;;3.72;1.10;;;;;;;;;;10056626;28;20042;-71
2022/08/04 16:46:44;;;;;;;3.22;1.27;;;;;;;;;;10056643;28;20053;-75
2022/08/04 16:52:02;;;;;;;4.03;1.00;;;;;;;;;;10055146;28;20049;-66
2022/08/04 16:56:57;;;;;;;6.70;1.13;;;;;;;;;;10059860;28;20505;-67
2022/08/04 17:01:52;;;;;;;1.30;0.90;;;;;;;;;;10061988;28;20561;-67
2022/08/04 17:06:46;;;;;;;4.38;1.83;;;;;;;;;;10067612;28;20776;-67
2022/08/04 17:11:45;;;;;;;2.42;1.17;;;;;;;;;;10071344;28;20062;-67
2022/08/04 17:16:41;;;;;;;4.47;1.52;;;;;;;;;;10063357;28;20103;-66
2022/08/04 17:21:37;;;;;;;1.40;1.20;;;;;;;;;;10069877;28;20053;-67
2022/08/04 17:26:36;;;;;;;4.40;1.60;;;;;;;;;;10068019;28;20112;-67
2022/08/04 17:31:34;;;;;;;5.43;1.40;;;;;;;;;;10064705;28;21324;-67
2022/08/04 17:36:30;;;;;;;2.23;1.33;;;;;;;;;;10066640;28;20124;-67
2022/08/04 17:41:29;;;;;;;4.13;1.60;;;;;;;;;;10060441;28;20304;-66
2022/08/04 17:46:35;;;;;;;2.90;1.33;;;;;;;;;;10060502;28;20108;-67
2022/08/04 17:51:55;;;;;;;4.57;1.45;;;;;;;;;;10055416;28;20107;-67
2022/08/04 17:57:19;;;;;;;6.43;1.40;;;;;;;;;;10066013;28;20061;-67
2022/08/04 18:02:22;;;;;;;2.65;2.15;;;;;;;;;;10062840;28;20057;-67
2022/08/04 18:07:41;;;;;;;6.40;1.70;;;;;;;;;;10069662;28;20367;-67
2022/08/04 18:12:55;;;;;;;7.32;1.63;;;;;;;;;;10060142;28;20407;-67
2022/08/04 18:17:49;;;;;;;4.28;1.70;;;;;;;;;;10059855;28;20513;-69
2022/08/04 18:23:04;;;;;;;5.15;1.63;;;;;;;;;;10056744;28;20444;-68
2022/08/04 18:28:09;;;;;;;5.68;1.60;;;;;;;;;;10058094;28;20467;-69
2022/08/04 18:33:07;;;;;;;5.55;2.22;;;;;;;;;;10060271;28;20553;-69
2022/08/04 18:38:21;;;;;;;4.30;1.90;;;;;;;;;;10066577;28;20060;-69
2022/08/04 18:43:16;;;;;;;4.55;1.63;;;;;;;;;;10064191;28;20061;-69
2022/08/04 18:48:20;;;;;;;5.20;1.90;;;;;;;;;;10066690;28;20053;-68
2022/08/04 18:53:28;;;;;;;8.35;1.90;;;;;;;;;;10050004;28;20150;-68
2022/08/04 18:58:28;;;;;;;4.45;1.85;;;;;;;;;;10066002;28;20091;-68
2022/08/04 19:03:21;;;;;;;5.85;2.72;;;;;;;;;;10065167;28;20041;-68
2022/08/04 19:08:16;;;;;;;4.13;1.75;;;;;;;;;;10054519;28;20103;-68
2022/08/04 19:13:30;;;;;;;2.05;1.80;;;;;;;;;;10054540;28;20063;-68
2022/08/04 19:18:26;;;;;;;8.68;1.98;;;;;;;;;;10062888;28;20049;-68
2022/08/04 19:23:20;;;;;;;4.03;1.98;;;;;;;;;;10060034;28;20647;-68
2022/08/04 19:28:35;;;;;;;3.50;1.90;;;;;;;;;;10060076;28;20061;-68
2022/08/04 19:33:28;;;;;;;4.55;1.98;;;;;;;;;;10049950;28;20099;-68
2022/08/04 19:38:42;;;;;;;2.05;1.95;;;;;;;;;;10053124;28;20068;-68
2022/08/04 19:43:37;;;;;;;2.63;2.20;;;;;;;;;;10052648;28;20088;-68
2022/08/04 19:48:35;;;;;;;6.45;1.60;;;;;;;;;;10054451;28;20050;-68
2022/08/04 19:53:29;;;;;;;10.65;2.13;;;;;;;;;;10055112;28;20053;-68
2022/08/04 19:58:30;;;;;;;5.93;2.13;;;;;;;;;;10061995;28;20057;-68
2022/08/04 20:03:23;;;;;;;6.63;1.83;;;;;;;;;;10056820;28;20477;-68
2022/08/04 20:08:38;;;;;;;8.25;2.42;;;;;;;;;;10055027;28;20136;-68
2022/08/04 20:13:52;;;;;;;5.00;2.20;;;;;;;;;;10052414;28;20124;-68
2022/08/04 20:18:47;;;;;;;5.32;2.30;;;;;;;;;;10060630;28;20053;-68
2022/08/04 20:23:52;;;;;;;5.85;2.15;;;;;;;;;;10054178;28;20041;-68
2022/08/04 20:28:45;;;;;;;3.83;2.10;;;;;;;;;;10058448;28;20507;-68
2022/08/04 20:33:48;;;;;;;4.82;2.20;;;;;;;;;;10058629;28;20046;-68
2022/08/04 20:38:47;;;;;;;11.13;2.72;;;;;;;;;;10066279;28;20532;-68
2022/08/04 20:44:01;;;;;;;7.53;2.53;;;;;;;;;;10047226;28;20132;-68
2022/08/04 20:48:55;;;;;;;5.63;3.00;;;;;;;;;;10063170;28;20075;-68
2022/08/04 20:53:49;;;;;;;6.63;2.03;;;;;;;;;;10063802;28;20054;-68
2022/08/04 20:58:46;;;;;;;5.75;2.60;;;;;;;;;;10062620;28;20058;-68
2022/08/04 21:08:52;;;;;;;3.05;2.13;;;;;;;;;;10070679;28;20073;-68
2022/08/04 21:13:49;;;;;;;6.60;2.67;;;;;;;;;;10070791;28;20046;-68
2022/08/04 21:18:44;;;;;;;6.28;2.63;;;;;;;;;;10058054;28;20053;-68
2022/08/04 21:23:41;;;;;;;10.15;2.75;;;;;;;;;;10069679;28;20049;-68
2022/08/04 21:28:35;;;;;;;13.95;3.75;;;;;;;;;;10066961;28;20061;-68
2022/08/04 21:33:31;;;;;;;4.57;2.78;;;;;;;;;;10067487;28;20456;-68
2022/08/04 21:38:43;;;;;;;8.35;3.17;;;;;;;;;;10069170;28;20057;-68
2022/08/04 21:43:44;;;;;;;14.30;3.22;;;;;;;;;;10061162;28;20050;-68
2022/08/04 21:48:39;;;;;;;16.30;4.03;;;;;;;;;;10068589;28;20045;-68
2022/08/04 21:53:35;;;;;;;7.35;3.67;;;;;;;;;;10055281;28;20057;-68
2022/08/04 21:58:29;;;;;;;6.05;3.10;;;;;;;;;;10060583;28;20053;-68
2022/08/04 22:03:25;;;;;;;7.72;3.05;;;;;;;;;;10055216;28;20057;-68
2022/08/04 22:08:43;;;;;;;3.70;2.90;;;;;;;;;;10068729;28;20055;-68
2022/08/04 22:13:41;;;;;;;8.10;3.22;;;;;;;;;;10061360;28;20049;-68
2022/08/04 22:18:56;;;;;;;7.30;2.70;;;;;;;;;;10066685;28;20057;-68
2022/08/04 22:23:52;;;;;;;2.85;2.50;;;;;;;;;;10065163;28;20139;-68
2022/08/04 22:28:48;;;;;;;4.20;2.30;;;;;;;;;;10066707;28;20080;-68
2022/08/04 22:33:43;;;;;;;5.32;2.55;;;;;;;;;;10069671;28;20063;-68
2022/08/04 22:38:50;;;;;;;4.10;2.70;;;;;;;;;;10069585;28;20045;-68
2022/08/04 22:43:58;;;;;;;7.05;3.00;;;;;;;;;;10068288;28;20054;-68
2022/08/04 22:48:52;;;;;;;5.22;2.50;;;;;;;;;;10053626;28;20136;-68
2022/08/04 22:53:47;;;;;;;11.80;3.60;;;;;;;;;;10060284;28;20067;-68
2022/08/04 22:58:42;;;;;;;6.00;3.17;;;;;;;;;;10060998;28;20061;-68
2022/08/04 23:03:44;;;;;;;6.38;3.22;;;;;;;;;;10064188;28;20137;-68
2022/08/04 23:08:48;;;;;;;11.25;3.60;;;;;;;;;;10057584;28;20049;-68
2022/08/04 23:13:42;;;;;;;7.35;2.47;;;;;;;;;;10054074;28;20050;-68
2022/08/04 23:18:41;;;;;;;7.88;3.10;;;;;;;;;;10055710;28;20057;-68
2022/08/04 23:23:41;;;;;;;7.82;3.17;;;;;;;;;;10062548;28;20522;-68
2022/08/04 23:28:48;;;;;;;7.43;2.47;;;;;;;;;;10066561;28;20053;-68
2022/08/04 23:33:42;;;;;;;8.10;2.60;;;;;;;;;;10065067;28;20045;-68
2022/08/04 23:38:44;;;;;;;6.93;2.63;;;;;;;;;;10056489;28;20045;-68
2022/08/04 23:43:39;;;;;;;9.02;3.05;;;;;;;;;;10057922;28;20049;-68
2022/08/04 23:48:48;;;;;;;11.18;3.47;;;;;;;;;;10057357;28;20064;-68
2022/08/04 23:53:44;;;;;;;9.93;3.45;;;;;;;;;;10061629;28;20493;-68
2022/08/04 23:58:56;;;;;;;10.05;3.33;;;;;;;;;;10062836;28;20050;-68
